Time;durP1;ratioP1;P1;durP2;ratioP2;P2;SDS_P1;SDS_P2;PMS_P1;PMS_P2;Temp;Humidity;BMP_temperature;BMP_pressure;BME280_temperature;BME280_humidity;BME280_pressure;Samples;Min_cycle;Max_cycle;Signal;HPM_P1;HPM_P2
2022/05/30 00:01:58;;;;;;;5.63;1.80;;;;;;;;;;4934992;28;20051;-85
2022/05/30 00:04:27;;;;;;;6.85;1.85;;;;;;;;;;4939297;29;20042;-84
2022/05/30 00:12:39;;;;;;;7.97;2.17;;;;;;;;;;5091556;23;20056;-85
2022/05/30 00:15:06;;;;;;;14.32;1.80;;;;;;;;;;4937850;29;20134;-85
2022/05/30 00:27:18;;;;;;;7.88;1.90;;;;;;;;;;4928372;29;20046;-84
2022/05/30 00:35:27;;;;;;;7.10;2.50;;;;;;;;;;5114917;23;20034;31
2022/05/30 00:40:43;;;;;;;6.93;1.80;;;;;;;;;;5241516;23;20043;-85
2022/05/30 00:43:24;;;;;;;4.50;1.60;;;;;;;;;;4937750;29;20078;-85
2022/05/30 00:48:16;;;;;;;10.88;2.42;;;;;;;;;;4951830;23;20483;-84
2022/05/30 00:50:43;;;;;;;7.55;2.50;;;;;;;;;;4951330;29;20055;-85
2022/05/30 00:53:10;;;;;;;7.30;2.45;;;;;;;;;;4954224;29;20039;-84
2022/05/30 00:55:36;;;;;;;9.38;2.95;;;;;;;;;;4940334;29;20062;-85
2022/05/30 01:00:43;;;;;;;11.35;2.53;;;;;;;;;;4925991;23;20048;-85
2022/05/30 01:08:49;;;;;;;6.07;2.50;;;;;;;;;;4904742;29;20052;-85
2022/05/30 01:11:18;;;;;;;6.22;2.30;;;;;;;;;;4906676;29;20111;-85
2022/05/30 01:13:44;;;;;;;9.10;3.17;;;;;;;;;;4904372;29;20044;-84
2022/05/30 01:16:10;;;;;;;9.18;3.03;;;;;;;;;;4921621;29;20028;-84
2022/05/30 01:18:39;;;;;;;10.15;2.20;;;;;;;;;;4922076;29;20087;-84
2022/05/30 01:21:37;;;;;;;5.50;2.28;;;;;;;;;;4930057;29;20068;-83
2022/05/30 01:24:25;;;;;;;12.43;2.80;;;;;;;;;;4904181;29;20126;-84
2022/05/30 01:26:57;;;;;;;10.32;3.03;;;;;;;;;;4901394;29;20400;-82
2022/05/30 01:29:28;;;;;;;4.55;1.75;;;;;;;;;;4934182;29;20086;-82
2022/05/30 01:31:55;;;;;;;7.28;1.88;;;;;;;;;;4912942;29;20548;-83
2022/05/30 01:34:22;;;;;;;17.98;2.30;;;;;;;;;;4921941;29;20412;-82
2022/05/30 01:36:48;;;;;;;6.35;1.85;;;;;;;;;;4937785;29;20126;-84
2022/05/30 01:39:21;;;;;;;3.67;1.98;;;;;;;;;;4914186;29;20052;-83
2022/05/30 01:41:47;;;;;;;6.63;2.15;;;;;;;;;;4891110;29;20094;-83
2022/05/30 01:44:14;;;;;;;7.00;1.90;;;;;;;;;;4903524;29;20056;-84
2022/05/30 01:46:41;;;;;;;7.55;1.85;;;;;;;;;;4914468;29;20048;-84
2022/05/30 01:49:07;;;;;;;6.22;1.92;;;;;;;;;;4926702;29;20110;-84
2022/05/30 01:51:34;;;;;;;8.98;2.05;;;;;;;;;;4903176;29;20051;-82
2022/05/30 01:54:00;;;;;;;6.38;2.00;;;;;;;;;;4895208;29;20049;-83
2022/05/30 01:56:26;;;;;;;4.63;2.22;;;;;;;;;;4913667;29;20386;-84
2022/05/30 01:58:52;;;;;;;5.55;2.95;;;;;;;;;;4885799;29;20062;-83
2022/05/30 02:01:20;;;;;;;7.82;2.03;;;;;;;;;;4917273;29;20048;-84
2022/05/30 02:03:47;;;;;;;5.13;2.42;;;;;;;;;;4918711;29;20627;-84
2022/05/30 02:06:13;;;;;;;6.55;2.40;;;;;;;;;;4927646;29;20138;-83
2022/05/30 02:08:39;;;;;;;6.18;2.28;;;;;;;;;;4918640;29;20042;-84
2022/05/30 02:11:08;;;;;;;6.63;2.03;;;;;;;;;;4903243;29;20222;-84
2022/05/30 02:13:34;;;;;;;6.30;2.17;;;;;;;;;;4915890;29;20536;-85
2022/05/30 02:18:49;;;;;;;7.38;2.45;;;;;;;;;;4901331;29;20059;-84
2022/05/30 02:21:15;;;;;;;6.95;2.00;;;;;;;;;;4901605;29;20463;-85
2022/05/30 02:23:42;;;;;;;5.00;2.28;;;;;;;;;;4909504;29;20134;-84
2022/05/30 02:26:08;;;;;;;10.07;2.47;;;;;;;;;;4899961;29;20036;-84
2022/05/30 02:28:34;;;;;;;6.97;2.45;;;;;;;;;;4904785;29;20044;-84
2022/05/30 02:31:01;;;;;;;5.93;2.60;;;;;;;;;;4917154;29;20450;-84
2022/05/30 02:36:55;;;;;;;11.88;2.55;;;8.00;99.90;;;;;;4926012;29;20040;-85
2022/05/30 02:39:21;;;;;;;6.82;2.63;;;;;;;;;;4919005;29;20044;-85
2022/05/30 02:41:48;;;;;;;9.35;2.70;;;;;;;;;;4902382;29;20050;-83
2022/05/30 02:44:17;;;;;;;7.82;2.78;;;;;;;;;;4931402;23;20193;-83
2022/05/30 02:46:43;;;;;;;12.00;3.63;;;;;;;;;;4910950;29;20051;-84
2022/05/30 02:49:10;;;;;;;7.28;2.80;;;;;;;;;;4924774;29;20406;-84
2022/05/30 02:51:51;;;;;;;12.15;2.85;;;;;;;;;;4923881;29;20040;-85
2022/05/30 02:54:18;;;;;;;7.20;2.47;;;;;;;;;;4929151;29;20138;-84
2022/05/30 02:56:51;;;;;;;7.07;2.67;;;;;;;;;;4935213;29;20178;-84
2022/05/30 02:59:32;;;;;;;11.77;2.78;;;;;;;;;;4947403;28;20066;-84
2022/05/30 03:01:59;;;;;;;8.52;2.80;;;;;;;;;;4904081;29;20055;-84
2022/05/30 03:04:25;;;;;;;8.25;2.70;;;;;;;;;;4927005;29;20036;-84
2022/05/30 03:06:57;;;;;;;7.38;2.65;;;;;;;;;;4934041;29;20048;-84
2022/05/30 03:09:23;;;;;;;9.23;3.17;;;;;;;;;;4918571;29;20128;-84
2022/05/30 03:11:49;;;;;;;5.57;3.08;;;;;;;;;;4921272;29;20103;-82
2022/05/30 03:17:12;;;;;;;6.93;3.80;;;;;;;;;;4961128;23;20056;-83
2022/05/30 03:19:38;;;;;;;9.05;2.67;;;;;;;;;;4904043;29;20059;-83
2022/05/30 03:22:04;;;;;;;4.95;2.50;;;;;;;;;;4935707;29;20111;-83
2022/05/30 03:24:32;;;;;;;4.30;2.50;;;;;;;;;;4919434;29;20059;-83
2022/05/30 03:27:17;;;;;;;7.30;2.83;;;;;;;;;;4920830;29;20111;-82
2022/05/30 03:29:43;;;;;;;7.05;2.30;;;;;;;;;;4921031;29;20032;-83
2022/05/30 03:32:09;;;;;;;5.57;2.50;;;;;;;;;;4908059;29;20058;-83
2022/05/30 03:34:35;;;;;;;7.68;2.40;;;;;;;;;;4940366;29;20044;-83
2022/05/30 03:37:01;;;;;;;6.00;2.10;;;;;;;;;;4889365;29;20040;-82
2022/05/30 03:39:27;;;;;;;12.02;2.88;;;;;;;;;;4930632;29;20059;-82
2022/05/30 03:41:53;;;;;;;7.55;2.28;;;;;;;;;;4941717;29;20040;-83
2022/05/30 03:44:19;;;;;;;6.00;2.47;;;;;;;;;;4938444;29;20055;-82
2022/05/30 03:46:45;;;;;;;4.32;2.10;;;;;;;;;;4910555;29;20059;-85
2022/05/30 03:49:27;;;;;;;4.07;2.15;;;;;;;;;;4924878;29;20111;-85
2022/05/30 03:51:53;;;;;;;5.40;2.28;;;;;;;;;;4892798;29;20962;-84
2022/05/30 03:54:19;;;;;;;5.88;2.33;;;;;;;;;;4908314;29;20067;-83
2022/05/30 03:56:45;;;;;;;6.82;2.47;;;;;;;;;;4925861;29;20043;-85
2022/05/30 03:59:24;;;;;;;6.30;2.28;;;;;;;;;;4936734;29;20036;-84
2022/05/30 04:01:50;;;;;;;7.95;2.03;;;;;;;;;;4924002;29;20047;-84
2022/05/30 04:04:16;;;;;;;6.25;2.28;;;;;;;;;;4921138;29;20091;-84
2022/05/30 04:06:42;;;;;;;4.78;1.98;;;;;;;;;;4908594;29;20055;-83
2022/05/30 04:09:08;;;;;;;6.10;2.38;;;;;;;;;;4939307;29;20131;-85
2022/05/30 04:11:35;;;;;;;4.43;2.60;;;;;;;;;;4921571;29;20040;-87
2022/05/30 04:14:01;;;;;;;6.90;2.28;;;;;;;;;;4907824;29;20048;-85
2022/05/30 04:16:28;;;;;;;6.53;2.55;;;;;;;;;;4922309;29;20052;-86
2022/05/30 04:22:17;;;;;;;8.30;2.53;;;;;;;;;;5027617;23;20129;-85
2022/05/30 04:24:43;;;;;;;4.70;2.10;;;;;;;;;;4924280;29;20570;-86
2022/05/30 04:27:09;;;;;;;5.53;2.30;;;;;;;;;;4926556;29;20137;-85
2022/05/30 04:29:37;;;;;;;5.57;2.75;;;;;;;;;;4913916;29;20139;-84
2022/05/30 04:32:03;;;;;;;5.03;2.40;;;;;;;;;;4909978;29;20055;-86
2022/05/30 04:34:33;;;;;;;9.80;2.53;;;;;;;;;;4924881;29;20103;-86
2022/05/30 04:36:59;;;;;;;3.50;2.60;;;;;;;;;;4934526;29;20103;-85
2022/05/30 04:39:28;;;;;;;6.25;2.63;;;;;;;;;;4920960;29;20662;-87
2022/05/30 04:41:55;;;;;;;7.88;2.65;;;;;;;;;;4923993;29;20079;-86
2022/05/30 04:44:21;;;;;;;6.18;2.88;;;;;;;;;;4924178;29;20074;-85
2022/05/30 04:49:36;;;;;;;4.38;2.33;;;;;;;;;;4922954;23;20056;-87
2022/05/30 04:52:02;;;;;;;8.27;3.58;;;;;;;;;;4902052;29;20511;-85
2022/05/30 04:54:29;;;;;;;6.28;2.58;;;;;;;;;;4887959;29;20139;-87
2022/05/30 04:56:58;;;;;;;3.95;2.45;;;;;;;;;;4902657;29;20067;-87
2022/05/30 04:59:53;;;;;;;4.53;2.45;;;;;;;;;;4902839;29;20097;-87
2022/05/30 05:02:19;;;;;;;5.05;2.35;;;;;;;;;;4896185;29;20445;-85
2022/05/30 05:04:45;;;;;;;8.73;2.35;;;;;;;;;;4884721;29;20040;-86
2022/05/30 05:07:11;;;;;;;7.65;2.50;;;;;;;;;;4901506;29;20686;-86
2022/05/30 05:10:20;;;;;;;5.53;2.53;;;8.70;99.90;;;;;;4904207;29;20048;-87
2022/05/30 05:12:47;;;;;;;5.53;2.35;;;;;;;;;;4903083;29;20103;-86
2022/05/30 05:18:35;;;;;;;6.70;2.47;;;;;;;;;;4902671;29;20075;-85
2022/05/30 05:21:02;;;;;;;4.32;2.70;;;;;;;;;;4887803;29;20044;-87
2022/05/30 05:23:28;;;;;;;5.47;2.58;;;;;;;;;;4904183;29;20079;-86
2022/05/30 05:25:54;;;;;;;4.85;2.08;;;;;;;;;;4930226;29;20036;-86
2022/05/30 05:30:55;;;;;;;8.40;2.50;;;;;;;;;;4963443;23;20154;-86
2022/05/30 05:33:22;;;;;;;7.90;2.85;;;;;;;;;;4925194;29;20043;-84
2022/05/30 05:35:48;;;;;;;5.40;2.83;;;;;;;;;;4952047;28;20042;-82
2022/05/30 05:38:14;;;;;;;6.22;2.63;;;;;;;;;;4945483;28;20047;-83
2022/05/30 05:40:43;;;;;;;5.13;2.50;;;;;;;;;;4918631;29;20403;-84
2022/05/30 05:43:15;;;;;;;4.63;2.72;;;;;;;;;;4923058;29;20093;-84
2022/05/30 05:45:43;;;;;;;8.13;2.65;;;;;;;;;;4955752;28;20506;-83
2022/05/30 05:48:10;;;;;;;5.45;2.65;;;;;;;;;;4935301;29;20047;-82
2022/05/30 05:50:40;;;;;;;6.85;3.13;;;;;;;;;;4925735;29;20064;-82
2022/05/30 05:53:06;;;;;;;6.90;2.63;;;;;;;;;;4931206;29;20129;-84
2022/05/30 05:55:32;;;;;;;5.03;2.70;;;;;;;;;;4949455;29;20031;-84
2022/05/30 05:58:02;;;;;;;2.95;2.03;;;;;;;;;;4950558;29;20050;-84
2022/05/30 06:00:31;;;;;;;5.85;2.10;;;;;;;;;;4961674;28;20071;-85
2022/05/30 06:02:57;;;;;;;5.40;2.65;;;;;;;;;;4927620;29;20053;-84
2022/05/30 06:05:24;;;;;;;4.00;1.70;;;;;;;;;;4944792;29;20381;-84
2022/05/30 06:07:50;;;;;;;5.50;2.15;;;;;;;;;;4956064;29;20147;-84
2022/05/30 06:10:16;;;;;;;3.67;1.70;;;;;;;;;;4939623;29;20058;-84
2022/05/30 06:12:43;;;;;;;4.35;1.42;;;;;;;;;;4937007;29;20104;-84
2022/05/30 06:15:10;;;;;;;8.63;1.92;;;;;;;;;;4936450;29;20163;-84
2022/05/30 06:17:44;;;;;;;6.35;1.70;;;;;;;;;;4955838;29;20035;-84
2022/05/30 06:20:12;;;;;;;6.28;2.10;;;;;;;;;;4945740;29;20057;-85
2022/05/30 06:22:38;;;;;;;6.55;2.08;;;;;;;;;;4938533;29;20052;-86
2022/05/30 06:25:23;;;;;;;5.40;1.88;;;;;;;;;;4935867;29;20067;-83
2022/05/30 06:27:49;;;;;;;5.15;1.80;;;;;;;;;;4937751;29;20062;-85
2022/05/30 06:30:15;;;;;;;5.20;1.50;;;;;;;;;;4961867;28;20082;-83
2022/05/30 06:32:41;;;;;;;4.10;1.50;;;;;;;;;;4945999;28;20554;-85
2022/05/30 06:35:07;;;;;;;6.22;1.55;;;;;;;;;;4965440;28;20042;-84
2022/05/30 06:37:34;;;;;;;5.32;1.27;;;;;;;;;;4973913;28;20050;-84
2022/05/30 06:40:00;;;;;;;4.35;1.50;;;;;;;;;;4971767;28;20039;-85
2022/05/30 06:42:26;;;;;;;9.73;1.77;;;;;;;;;;4921462;23;20115;-84
2022/05/30 06:44:52;;;;;;;3.45;1.38;;;;;;;;;;4899416;29;20044;-85
2022/05/30 06:47:18;;;;;;;8.15;1.50;;;;;;;;;;4901939;29;20055;-85
2022/05/30 06:49:44;;;;;;;4.47;1.40;;;;;;;;;;4890362;29;20048;-85
2022/05/30 06:52:12;;;;;;;5.32;1.35;;;;;;;;;;4913629;29;20044;-85
2022/05/30 06:54:38;;;;;;;3.30;1.40;;;;;;;;;;4903993;29;20657;-85
2022/05/30 06:59:50;;;;;;;3.42;1.20;;;;;;;;;;4917101;29;20048;-84
2022/05/30 07:02:16;;;;;;;2.78;1.20;;;;;;;;;;4905823;29;20040;-85
2022/05/30 07:04:42;;;;;;;1.00;0.70;;;;;;;;;;4922416;29;20203;-86
2022/05/30 07:07:08;;;;;;;0.75;0.60;;;;;;;;;;4935545;29;20536;-85
2022/05/30 07:09:38;;;;;;;3.58;0.70;;;;;;;;;;4906389;29;20044;-86
2022/05/30 07:12:16;;;;;;;2.63;0.70;;;;;;;;;;4920108;29;20052;-84
2022/05/30 07:14:42;;;;;;;2.55;0.57;;;;;;;;;;4918057;29;20036;-85
2022/05/30 07:17:11;;;;;;;7.05;0.88;;;;;;;;;;4906825;29;20055;-85
2022/05/30 07:19:37;;;;;;;2.75;0.60;;;;;;;;;;4922079;29;20083;-85
2022/05/30 07:22:03;;;;;;;2.40;0.65;;;;;;;;;;4912864;29;20080;-85
2022/05/30 07:24:30;;;;;;;0.47;0.40;;;;;;;;;;4932640;29;20040;-85
2022/05/30 07:26:56;;;;;;;0.82;0.40;;;;;;;;;;4896401;29;20095;-85
2022/05/30 07:29:26;;;;;;;1.73;0.60;;;;;;;;;;5053365;23;20761;-85
2022/05/30 07:31:56;;;;;;;3.15;0.55;;;;;;;;;;4925639;29;20052;-86
2022/05/30 07:34:26;;;;;;;1.35;0.55;;;;;;;;;;4951137;28;20047;-85
2022/05/30 07:36:52;;;;;;;1.42;0.73;;;;;;;;;;4947452;29;20044;-85
2022/05/30 07:39:18;;;;;;;2.67;0.60;;;;;;;;;;4936577;29;20135;-85
2022/05/30 07:45:08;;;;;;;1.60;0.43;;;;;;;;;;4934419;29;20027;-85
2022/05/30 07:47:34;;;;;;;0.63;0.50;;;;;;;;;;4914243;29;20044;-86
2022/05/30 07:50:02;;;;;;;0.93;0.40;;;;;;;;;;4909675;29;20039;-86
2022/05/30 07:52:32;;;;;;;0.80;0.40;;;;;;;;;;4936194;29;20054;-86
2022/05/30 07:54:59;;;;;;;1.17;0.50;;;;;;;;;;4939777;29;20082;-86
2022/05/30 08:00:22;;;;;;;2.38;0.60;;;;;;;;;;4928118;29;20072;-85
2022/05/30 08:02:49;;;;;;;1.00;0.68;;;;;;;;;;4917366;29;20055;-87
2022/05/30 08:05:16;;;;;;;2.50;0.70;;;;;;;;;;4940128;29;20070;-86
2022/05/30 08:07:43;;;;;;;3.28;0.60;;;;;;;;;;4917529;29;20047;-86
2022/05/30 08:10:10;;;;;;;1.33;0.57;;;;;;;;;;4949359;29;20058;-86
2022/05/30 08:12:36;;;;;;;3.30;0.75;;;;;;;;;;4916877;29;20503;-85
2022/05/30 08:15:02;;;;;;;2.78;0.70;;;;;;;;;;4910768;29;20039;-86
2022/05/30 08:17:28;;;;;;;2.17;0.57;;;;;;;;;;4927150;29;20082;-85
2022/05/30 08:19:54;;;;;;;3.05;0.70;;;;;;;;;;4929198;29;20055;-85
2022/05/30 08:22:22;;;;;;;2.92;0.93;;;;;;;;;;4942766;29;20055;-86
2022/05/30 08:24:53;;;;;;;1.85;0.60;;;;;;;;;;4916608;29;20040;-85
2022/05/30 08:27:19;;;;;;;3.97;0.90;;;;;;;;;;4934770;29;20047;-85
2022/05/30 08:29:46;;;;;;;2.75;0.73;;;;;;;;;;4918932;29;20036;-86
2022/05/30 08:32:15;;;;;;;1.88;0.70;;;;;;;;;;4919587;29;20056;-85
2022/05/30 08:34:41;;;;;;;2.53;0.63;;;;;;;;;;4943935;29;20036;-84
2022/05/30 08:37:08;;;;;;;1.67;0.70;;;;;;;;;;4924169;29;20071;-86
2022/05/30 08:42:28;;;;;;;2.25;0.65;;;;;;;;;;4905057;29;20066;-85
2022/05/30 08:44:55;;;;;;;0.60;0.30;;;;;;;;;;4923142;29;20055;-83
2022/05/30 08:47:24;;;;;;;0.90;0.40;;;;;;;;;;4914720;29;20058;-84
2022/05/30 08:49:52;;;;;;;2.28;0.68;;;;;;;;;;4907621;29;20067;-84
2022/05/30 08:52:50;;;;;;;0.80;0.40;;;;;;;;;;4907329;29;20058;-85
2022/05/30 08:55:22;;;;;;;1.48;0.47;;;;;;;;;;4926040;29;20135;-83
2022/05/30 08:57:58;;;;;;;4.50;0.70;;;;;;;;;;4907298;29;20039;-85
2022/05/30 09:00:44;;;;;;;0.95;0.50;;;;;;;;;;4919485;29;20110;-84
2022/05/30 09:03:17;;;;;;;3.80;0.70;;;;;;;;;;4923174;29;20055;-85
2022/05/30 09:05:47;;;;;;;1.30;0.60;;;;;;;;;;4923079;29;20036;-84
2022/05/30 09:08:19;;;;;;;1.17;0.68;;;;;;;;;;4924513;29;20420;-85
2022/05/30 09:10:54;;;;;;;3.25;0.60;;;;;;;;;;4905775;29;20090;-85
2022/05/30 09:13:27;;;;;;;1.15;0.70;;;;;;;;;;4911719;29;20052;-85
2022/05/30 09:16:03;;;;;;;1.35;0.55;;;;;;;;;;4917365;29;20071;-84
2022/05/30 09:18:36;;;;;;;1.55;0.50;;;;;;;;;;4906776;29;20040;-86
2022/05/30 09:21:02;;;;;;;2.47;0.73;;;;;;;;;;4932287;29;20040;-85
2022/05/30 09:23:28;;;;;;;3.03;0.77;;;;;;;;;;4925314;29;20039;-84
2022/05/30 09:25:57;;;;;;;3.40;0.70;;;;;;;;;;4924798;29;20046;-85
2022/05/30 09:28:34;;;;;;;3.65;0.70;;;;;;;;;;4937688;29;20036;-85
2022/05/30 09:31:03;;;;;;;2.28;0.50;;;;;;;;;;4919530;29;20051;-85
2022/05/30 09:33:32;;;;;;;5.60;0.70;;;;;;;;;;4912414;29;20051;-86
2022/05/30 09:36:15;;;;;;;3.38;0.77;;;;;;;;;;4939549;29;20197;-84
2022/05/30 09:38:51;;;;;;;2.50;1.05;;;;;;;;;;4907528;29;20043;-86
2022/05/30 09:41:19;;;;;;;2.25;1.20;;;;;;;;;;4924884;29;20139;-86
2022/05/30 09:43:48;;;;;;;3.75;0.73;;;;;;;;;;4939244;29;20038;-86
2022/05/30 09:46:20;;;;;;;5.90;1.60;;;;;;;;;;4916847;29;20073;-86
2022/05/30 09:52:20;;;;;;;1.70;1.20;;;;;;;;;;4905184;29;20106;-86
2022/05/30 09:54:46;;;;;;;4.30;0.90;;;;;;;;;;4921042;29;20054;-87
2022/05/30 09:57:23;;;;;;;3.20;0.68;;;;;;;;;;4912734;29;20039;-86
2022/05/30 09:59:52;;;;;;;4.50;0.80;;;;;;;;;;4921109;29;20052;-87
2022/05/30 10:02:24;;;;;;;2.50;0.63;;;;;;;;;;4937492;29;20412;-86
2022/05/30 10:04:56;;;;;;;3.55;0.70;;;;;;;;;;4917364;29;20070;-86
2022/05/30 10:07:22;;;;;;;3.58;0.77;;;;;;;;;;4916360;29;20035;-86
2022/05/30 10:09:56;;;;;;;5.70;0.70;;;;;;;;;;4907334;29;20365;-87
2022/05/30 10:12:22;;;;;;;;;;;;;;;;;;4919875;29;20099;-87
2022/05/30 10:14:48;;;;;;;3.10;0.90;;;;;;;;;;4905861;29;19969;-87
2022/05/30 10:17:17;;;;;;;4.50;1.05;;;;;;;;;;4923508;29;20032;-86
2022/05/30 10:19:49;;;;;;;3.38;1.17;;;;;;;;;;4939178;29;20071;-84
2022/05/30 10:28:20;;;;;;;3.53;0.98;;;;;;;;;;4915616;29;20044;-86
2022/05/30 10:31:01;;;;;;;1.88;1.05;;;;;;;;;;4920790;29;20068;-86
2022/05/30 10:33:43;;;;;;;2.50;1.17;;;;;;;;;;4903978;29;20056;-87
2022/05/30 10:36:12;;;;;;;4.35;0.93;;;;;;;;;;4918581;29;20051;-86
2022/05/30 10:38:56;;;;;;;1.95;1.08;;;;;;;;;;4920668;29;20066;-87
2022/05/30 10:41:22;;;;;;;;;;;;;;;;;;4923678;29;20052;-87
2022/05/30 10:43:52;;;;;;;3.28;1.40;;;;;;;;;;4920231;29;19930;-86
2022/05/30 10:46:25;;;;;;;3.22;0.93;;;;;;;;;;4917330;29;20059;-85
2022/05/30 10:49:09;;;;;;;3.00;0.90;;;;;;;;;;4919249;29;20054;-85
2022/05/30 10:51:45;;;;;;;2.33;1.10;;;;;;;;;;4934431;29;20043;-83
2022/05/30 10:54:14;;;;;;;3.17;0.93;;;;;;;;;;4905326;29;20044;-83
2022/05/30 10:56:47;;;;;;;3.33;1.10;;;;;;;;;;4901960;29;20110;-85
2022/05/30 10:59:32;;;;;;;2.50;1.07;;;;;;;;;;4916204;29;20086;-84
2022/05/30 11:02:06;;;;;;;2.78;1.30;;;;;;;;;;4910527;29;20075;-85
2022/05/30 11:04:49;;;;;;;6.75;1.48;;;;;;;;;;4916862;29;20417;-82
2022/05/30 11:07:38;;;;;;;1.77;0.93;;;;;;;;;;4895513;29;20044;-85
2022/05/30 11:10:07;;;;;;;3.35;1.23;;;;;;;;;;4912979;29;20050;-87
2022/05/30 11:12:38;;;;;;;5.78;0.95;;;;;;;;;;4916169;29;20034;-87
2022/05/30 11:15:04;;;;;;;4.95;0.80;;;;;;;;;;4915646;29;20039;-84
2022/05/30 11:17:36;;;;;;;2.75;0.80;;;;;;;;;;4905321;29;20039;-86
2022/05/30 11:20:21;;;;;;;2.25;0.63;;;;;;;;;;4926725;29;20087;-86
2022/05/30 11:22:47;;;;;;;2.60;0.70;;;;;;;;;;4891737;29;20066;-86
2022/05/30 11:25:21;;;;;;;3.35;0.68;;;;;;;;;;4921533;29;20083;-85
2022/05/30 11:27:53;;;;;;;2.33;0.60;;;;;;;;;;4907818;23;20500;-86
2022/05/30 11:30:22;;;;;;;1.55;0.65;;;;;;;;;;4916847;29;20281;-85
2022/05/30 11:33:01;;;;;;;3.67;0.70;;;;;;;;;;4904240;29;20059;-87
2022/05/30 11:35:30;;;;;;;6.55;1.02;;;;;;;;;;4901473;29;20052;-87
2022/05/30 11:38:19;;;;;;;2.90;1.08;;;;;;;;;;4916765;29;20041;-86
2022/05/30 11:41:04;;;;;;;6.55;0.98;;;;;;;;;;4909625;29;20049;-82
2022/05/30 11:43:30;;;;;;;1.92;0.75;;;;;;;;;;4891587;29;20501;-82
2022/05/30 11:45:57;;;;;;;2.17;0.98;;;;;;;;;;4893435;29;20076;-81
2022/05/30 11:48:23;;;;;;;1.50;0.70;;;;;;;;;;4894044;29;20512;-81
2022/05/30 11:50:49;;;;;;;2.22;0.75;;;;;;;;;;4907974;29;20046;-81
2022/05/30 11:53:20;;;;;;;4.10;1.08;;;;;;;;;;4892045;29;20048;-82
2022/05/30 11:55:48;;;;;;;3.20;0.80;;;;;;;;;;4897328;29;20104;-83
2022/05/30 11:58:29;;;;;;;2.28;0.77;;;;;;;;;;4895289;29;20477;-81
2022/05/30 12:00:56;;;;;;;4.28;1.10;;;;;;;;;;4884307;29;20139;-81
2022/05/30 12:03:29;;;;;;;3.55;0.73;;;;;;;;;;4896457;29;20048;-82
2022/05/30 12:06:07;;;;;;;1.45;0.60;;;;;;;;;;4892876;29;20521;-82
2022/05/30 12:08:33;;;;;;;1.85;0.65;;;;;;;;;;4892543;29;20052;-83
2022/05/30 12:11:08;;;;;;;2.58;0.43;;;;;;;;;;4890152;29;20055;-84
2022/05/30 12:13:41;;;;;;;0.65;0.50;;;;;;;;;;4892248;29;20081;-83
2022/05/30 12:16:22;;;;;;;3.30;1.00;;;;;;;;;;4892617;29;20573;-83
2022/05/30 12:24:39;;;;;;;0.80;0.60;;;;;;;;;;4894438;29;20044;-83
2022/05/30 12:27:07;;;;;;;2.00;0.70;;;;;;;;;;4890818;29;20072;-83
2022/05/30 12:29:53;;;;;;;4.43;0.98;;;;;;;;;;4908424;29;20131;-83
2022/05/30 12:32:23;;;;;;;3.35;0.52;;;;;;;;;;4910220;29;20376;-82
2022/05/30 12:35:01;;;;;;;1.73;0.70;;;;;;;;;;4894627;29;20127;-81
2022/05/30 12:37:45;;;;;;;1.65;0.60;;;;;;;;;;4911151;29;20059;-82
2022/05/30 12:40:12;;;;;;;;;;;;;;;;;;4910082;29;20032;-82
2022/05/30 12:42:42;;;;;;;3.20;0.60;;;;;;;;;;4910397;29;19931;-83
2022/05/30 12:45:27;;;;;;;1.65;0.82;;;;;;;;;;4908066;29;20056;-82
2022/05/30 12:47:55;;;;;;;1.38;0.55;;;;;;;;;;4911152;29;20576;-83
2022/05/30 12:50:31;;;;;;;1.85;0.60;;;;;;;;;;4907531;29;20051;-82
2022/05/30 12:52:58;;;;;;;0.90;0.40;;;;;;;;;;4907377;29;20048;-82
2022/05/30 12:55:34;;;;;;;1.27;0.30;;;;;;;;;;4909864;29;20103;-82
2022/05/30 12:58:00;;;;;;;2.30;0.63;;;;;;;;;;4892900;29;20095;-81
2022/05/30 13:00:46;;;;;;;1.30;0.47;;;;;;;;;;4910773;29;20040;-82
2022/05/30 13:03:12;;;;;;;0.70;0.35;;;;;;;;;;4909545;29;20059;-80
2022/05/30 13:08:45;;;;;;;1.35;0.70;;;;;;;;;;4936111;23;20147;-80
2022/05/30 13:11:12;;;;;;;2.60;1.05;;;;;;;;;;4912418;29;20492;-81
2022/05/30 13:16:21;;;;;;;1.42;0.77;;;;;;;;;;4906864;29;20040;-81
2022/05/30 13:18:50;;;;;;;4.32;0.82;;;;;;;;;;4911652;29;20062;-80
2022/05/30 13:21:19;;;;;;;4.20;1.00;;;;;;;;;;4917540;29;20044;-83
2022/05/30 13:23:47;;;;;;;1.58;0.73;;;;;;;;;;4901321;29;20040;-82
2022/05/30 13:26:18;;;;;;;6.35;1.00;;;;;;;;;;4909898;29;20571;-85
2022/05/30 13:28:45;;;;;;;1.95;0.80;;;;;;;;;;4912292;29;20746;-85
2022/05/30 13:31:13;;;;;;;1.83;0.68;;;;;;;;;;4911270;29;20052;-87
2022/05/30 13:33:48;;;;;;;2.15;0.68;;;;;;;;;;4913240;29;20540;-87
2022/05/30 13:36:35;;;;;;;2.38;0.68;;;;;;;;;;4893205;29;20047;-85
2022/05/30 13:39:11;;;;;;;2.88;0.65;;;;;;;;;;4889402;29;20044;-81
2022/05/30 13:41:40;;;;;;;3.63;1.05;;;;;;;;;;4906208;29;20080;-84
2022/05/30 13:44:29;;;;;;;2.38;1.05;;;;;;;;;;4894111;29;20055;-83
2022/05/30 13:46:56;;;;;;;2.10;0.70;;;;;;;;;;4901727;29;20120;-82
2022/05/30 13:49:41;;;;;;;3.55;1.17;;;;;;;;;;4892166;29;20048;-83
2022/05/30 13:55:33;;;;;;;1.35;0.70;;;;;;;;;;4839496;29;20164;-81
2022/05/30 13:58:01;;;;;;;2.45;0.90;;;;;;;;;;4909017;29;20099;-82
2022/05/30 14:00:35;;;;;;;3.08;1.27;;;;;;;;;;4887884;29;20056;-82
2022/05/30 14:03:02;;;;;;;1.73;1.05;;;;;;;;;;4905648;29;20036;-81
2022/05/30 14:08:42;;;;;;;2.67;0.85;;;;;;;;;;4908517;29;20043;-83
2022/05/30 14:11:09;;;;;;;1.83;1.00;;;;;;;;;;5227321;23;20473;-83
2022/05/30 14:16:11;;;;;;;3.15;0.80;;;;;;;;;;4950300;23;20078;-84
2022/05/30 14:22:25;;;;;;;2.42;0.75;;;;;;;;;;4943352;23;20063;-83
2022/05/30 14:24:59;;;;;;;1.75;0.70;;;;;;;;;;4899806;29;20060;-83
2022/05/30 14:27:56;;;;;;;1.05;0.80;;;;;;;;;;4885527;29;20516;-82
2022/05/30 14:30:41;;;;;;;4.35;1.15;;;;;;;;;;4885344;29;20083;-82
2022/05/30 14:36:05;;;;;;;2.55;1.10;;;;;;;;;;4974248;23;20769;-81
2022/05/30 14:38:37;;;;;;;3.08;0.98;;;;;;;;;;4938580;29;20407;-83
2022/05/30 14:41:04;;;;;;;1.88;0.90;;;;;;;;;;4927758;29;20086;-83
2022/05/30 14:43:45;;;;;;;3.72;1.00;;;;;;;;;;4909006;29;20054;-80
2022/05/30 14:46:11;;;;;;;2.08;0.90;;;;;;;;;;4916597;29;20085;-82
2022/05/30 14:52:06;;;;;;;2.28;0.88;;;;;;;;;;4952403;23;21016;-81
2022/05/30 14:54:39;;;;;;;1.38;0.82;;;;;;;;;;4924997;28;20488;-81
2022/05/30 14:57:11;;;;;;;0.73;0.68;;;;;;;;;;4944267;28;20094;-81
2022/05/30 15:00:05;;;;;;;5.30;1.15;;;;;;;;;;4932556;29;20466;-81
2022/05/30 15:05:32;;;;;;;3.70;0.80;;;;;;;;;;4934511;29;20078;-82
2022/05/30 15:07:58;;;;;;;3.30;1.13;;;;;;;;;;4929893;29;20044;-82
2022/05/30 15:10:24;;;;;;;1.77;0.80;;;;;;;;;;4947273;29;20651;-81
2022/05/30 15:12:51;;;;;;;1.95;0.90;;;;;;;;;;4926420;29;20075;-81
2022/05/30 15:15:19;;;;;;;1.67;0.90;;;;;;;;;;4927852;29;20047;-80
2022/05/30 15:17:48;;;;;;;1.75;0.80;;;;;;;;;;4945546;29;20047;-81
2022/05/30 15:20:20;;;;;;;1.15;0.88;;;;;;;;;;4924072;29;20063;-83
2022/05/30 15:22:47;;;;;;;2.90;1.02;;;;;;;;;;4947414;28;20091;-82
2022/05/30 15:25:13;;;;;;;1.33;0.85;;;;;;;;;;4946199;29;20415;-83
2022/05/30 15:28:07;;;;;;;1.88;1.10;;;;;;;;;;4948639;28;20051;-82
2022/05/30 15:30:41;;;;;;;3.07;1.00;;;;;;;;;;4947369;29;20403;-82
2022/05/30 15:36:01;;;;;;;4.57;1.00;;;;;;;;;;5074823;23;20553;-82
2022/05/30 15:38:28;;;;;;;2.45;1.02;;;;;;;;;;4947256;28;20101;-82
2022/05/30 15:40:54;;;;;;;1.75;0.70;;;;;;;;;;4930159;29;20043;-82
2022/05/30 15:43:20;;;;;;;1.45;0.80;;;;;;;;;;4944598;29;20040;-83
2022/05/30 15:45:46;;;;;;;2.05;0.90;;;;;;;;;;4945723;28;20069;-82
2022/05/30 15:48:12;;;;;;;2.97;0.80;;;;;;;;;;4948257;28;20051;-82
2022/05/30 15:50:42;;;;;;;1.38;0.60;;;;;;;;;;4947328;29;20047;-82
2022/05/30 15:58:40;;;;;;;3.60;1.05;;;;;;;;;;4930579;29;20058;-83
2022/05/30 16:01:07;;;;;;;1.35;0.80;;;;;;;;;;4926364;29;20047;-81
2022/05/30 16:03:33;;;;;;;1.67;0.82;;;;;;;;;;4945855;28;20102;-81
2022/05/30 16:06:00;;;;;;;1.27;0.80;;;;;;;;;;4946092;28;20133;-80
2022/05/30 16:08:31;;;;;;;4.95;0.98;;;;;;;;;;4943490;28;20074;-81
2022/05/30 16:11:25;;;;;;;3.83;0.60;;;;;;;;;;4943390;28;20059;-82
2022/05/30 16:13:51;;;;;;;3.45;0.68;;;;;;;;;;4939519;28;20079;-81
2022/05/30 16:16:17;;;;;;;3.83;0.98;;;;;;;;;;4924407;29;20202;-82
2022/05/30 16:18:44;;;;;;;1.00;0.60;;;;;;;;;;4921517;28;20461;-81
2022/05/30 16:21:15;;;;;;;2.22;0.73;;;;;;;;;;4942801;28;20721;-81
2022/05/30 16:24:06;;;;;;;2.05;1.17;;;;;;;;;;4944967;28;20090;-80
2022/05/30 16:26:34;;;;;;;1.73;0.82;;;;;;;;;;4889595;29;20146;-82
2022/05/30 16:29:00;;;;;;;2.40;0.82;;;;;;;;;;4905538;29;20048;-80
2022/05/30 16:31:59;;;;;;;2.00;0.63;;;;;;;;;;4903203;29;20059;-80
2022/05/30 16:34:25;;;;;;;3.90;0.70;;;;;;;;;;4868205;29;20068;-80
2022/05/30 16:36:51;;;;;;;1.45;0.50;;;;;;;;;;4906192;29;20081;-81
2022/05/30 16:39:18;;;;;;;2.05;0.50;;;;;;;;;;4891976;29;20552;-81
2022/05/30 16:41:44;;;;;;;2.53;0.50;;;;;;;;;;4909186;29;20055;-79
2022/05/30 16:44:14;;;;;;;2.47;0.50;;;;;;;;;;4896602;29;20190;-82
2022/05/30 16:49:10;;;;;;;5.65;1.05;;;;;;;;;;4977469;23;20039;-82
2022/05/30 16:51:36;;;;;;;0.70;0.40;;;;;;;;;;4956720;28;20061;-82
2022/05/30 16:54:02;;;;;;;2.38;0.70;;;;;;;;;;4968033;28;20036;-81
2022/05/30 16:56:29;;;;;;;2.92;0.60;;;;;;;;;;4953196;23;20562;-81
2022/05/30 16:58:55;;;;;;;1.48;0.47;;;;;;;;;;4940517;28;20086;-82
2022/05/30 17:01:21;;;;;;;1.85;0.93;;;;;;;;;;4947214;28;20539;-83
2022/05/30 17:06:57;;;;;;;1.65;0.75;;;;;;;;;;4908938;29;20052;-81